createdAt,value
2019-04-26T00:00:58.688Z,82.09
2019-04-26T00:06:05.747Z,81.41
2019-04-26T00:11:13.764Z,81.71
2019-04-26T00:16:27.087Z,81.57
2019-04-26T00:21:32.667Z,82.35
2019-04-26T00:26:38.667Z,82.57
2019-04-26T00:31:45.367Z,83.66
2019-04-26T00:36:51.109Z,82.78
2019-04-26T00:41:57.227Z,83.28
2019-04-26T00:47:04.235Z,83.06
2019-04-26T00:52:11.270Z,82.92
2019-04-26T00:57:18.406Z,82.93
2019-04-26T01:02:25.870Z,82.64
2019-04-26T01:07:31.508Z,82.86
2019-04-26T01:12:37.108Z,82.62
2019-04-26T01:17:42.606Z,82.87
2019-04-26T01:22:50.986Z,82.77
2019-04-26T01:27:56.887Z,83.42
2019-04-26T01:33:03.531Z,83.59
2019-04-26T01:38:12.007Z,83.15
2019-04-26T01:43:23.109Z,83.49
2019-04-26T01:48:43.448Z,83.58
2019-04-26T01:53:52.307Z,83.44
2019-04-26T01:58:58.148Z,83.51
2019-04-26T02:04:03.893Z,83.73
2019-04-26T02:09:10.447Z,83.86
2019-04-26T02:14:16.188Z,83.76
2019-04-26T02:19:23.313Z,84.26
2019-04-26T02:24:32.159Z,84.38
2019-04-26T02:29:38.108Z,84.06
2019-04-26T02:34:44.271Z,84.11
2019-04-26T02:39:51.296Z,84.33
2019-04-26T02:45:28.312Z,83.93
2019-04-26T02:50:35.392Z,84.01
2019-04-26T02:55:53.928Z,83.92
2019-04-26T03:01:02.068Z,84.30
2019-04-26T03:06:08.108Z,83.95
2019-04-26T03:11:17.543Z,84.89
2019-04-26T03:16:43.308Z,85.40
2019-04-26T03:22:00.667Z,84.68
2019-04-26T03:27:27.271Z,84.31
2019-04-26T03:33:10.581Z,84.60
2019-04-26T03:38:26.605Z,84.92
2019-04-26T03:43:39.070Z,84.51
2019-04-26T03:49:20.287Z,84.66
2019-04-26T03:54:31.517Z,85.10
2019-04-26T03:59:42.712Z,84.76
2019-04-26T04:04:53.187Z,85.03
2019-04-26T04:10:04.527Z,85.14
2019-04-26T04:15:19.090Z,85.17
2019-04-26T04:20:56.180Z,84.61
2019-04-26T04:26:04.707Z,83.73
2019-04-26T04:31:21.768Z,84.43
2019-04-26T04:36:30.169Z,82.32
2019-04-26T04:41:47.001Z,80.10
2019-04-26T04:47:23.670Z,78.50
2019-04-26T04:52:37.456Z,78.22
2019-04-26T04:58:03.831Z,75.67
2019-04-26T05:03:34.826Z,68.62
2019-04-26T05:08:52.993Z,67.45
2019-04-26T05:14:08.328Z,68.73
2019-04-26T05:19:39.412Z,67.40
2019-04-26T05:25:17.826Z,66.43
2019-04-26T05:30:47.880Z,59.11
2019-04-26T05:36:00.885Z,56.11
2019-04-26T05:41:28.346Z,54.91
2019-04-26T05:46:59.367Z,54.30
2019-04-26T05:52:31.907Z,54.53
2019-04-26T05:57:41.867Z,53.61
2019-04-26T06:03:02.012Z,55.41
2019-04-26T06:08:30.403Z,54.48
2019-04-26T06:13:47.175Z,52.97
2019-04-26T06:19:43.966Z,54.67
2019-04-26T06:25:12.098Z,57.42
2019-04-26T06:30:20.526Z,55.94
2019-04-26T06:35:28.516Z,55.56
2019-04-26T06:40:42.046Z,54.65
2019-04-26T06:46:06.466Z,52.37
2019-04-26T06:51:24.528Z,52.47
2019-04-26T06:56:52.767Z,52.75
2019-04-26T07:02:09.909Z,52.64
2019-04-26T07:07:36.187Z,52.57
2019-04-26T07:13:04.398Z,48.31
2019-04-26T07:18:18.630Z,51.12
2019-04-26T07:23:49.637Z,50.98
2019-04-26T07:29:30.109Z,50.21
2019-04-26T07:34:50.066Z,48.01
2019-04-26T07:40:12.207Z,47.91
2019-04-26T07:45:38.712Z,47.95
2019-04-26T07:51:19.114Z,49.70
2019-04-26T07:56:42.436Z,45.39
2019-04-26T08:02:00.791Z,47.46
2019-04-26T08:07:13.261Z,47.05
2019-04-26T08:12:21.852Z,47.00
2019-04-26T08:17:42.973Z,46.70
2019-04-26T08:22:52.297Z,50.09
2019-04-26T08:28:00.750Z,46.64
2019-04-26T08:33:12.818Z,50.10
2019-04-26T08:38:22.346Z,47.41
2019-04-26T08:43:49.750Z,47.11
2019-04-26T08:49:11.183Z,47.75
2019-04-26T08:54:21.048Z,46.53
2019-04-26T08:59:29.506Z,46.58
2019-04-26T09:04:54.526Z,42.71
2019-04-26T09:10:10.682Z,46.84
2019-04-26T09:15:13.851Z,47.90
2019-04-26T09:20:28.488Z,44.03
2019-04-26T09:25:30.265Z,42.87
2019-04-26T09:30:53.729Z,42.87
2019-04-26T09:35:59.487Z,42.99
2019-04-26T09:41:05.412Z,41.47
2019-04-26T09:46:18.431Z,41.15
2019-04-26T09:51:24.047Z,40.67
2019-04-26T09:56:29.528Z,41.90
2019-04-26T10:01:34.988Z,39.44
2019-04-26T10:06:40.847Z,39.27
2019-04-26T10:11:50.851Z,38.48
2019-04-26T10:17:02.257Z,40.73
2019-04-26T10:22:08.006Z,37.37
2019-04-26T10:27:13.627Z,40.27
2019-04-26T10:32:21.790Z,35.83
2019-04-26T10:37:38.749Z,38.09
2019-04-26T10:42:33.847Z,39.83
2019-04-26T10:47:39.917Z,37.64
2019-04-26T10:52:53.328Z,34.34
2019-04-26T10:57:56.501Z,33.43
2019-04-26T11:03:04.438Z,36.82
2019-04-26T11:08:09.567Z,34.23
2019-04-26T11:13:15.108Z,31.74
2019-04-26T11:18:27.377Z,30.05
2019-04-26T11:23:28.170Z,32.17
2019-04-26T11:28:33.892Z,31.06
2019-04-26T11:33:44.929Z,32.37
2019-04-26T11:38:49.781Z,29.13
2019-04-26T11:44:05.410Z,32.16
2019-04-26T11:49:11.067Z,29.97
2019-04-26T11:54:17.059Z,29.85
2019-04-26T11:59:26.996Z,29.44
2019-04-26T12:04:35.845Z,31.09
2019-04-26T12:09:42.968Z,30.32
2019-04-26T12:14:48.469Z,33.39
2019-04-26T12:19:54.312Z,34.04
2019-04-26T12:25:03.467Z,30.69
2019-04-26T12:30:08.547Z,30.34
2019-04-26T12:35:14.105Z,31.64
2019-04-26T12:43:08.382Z,30.50
2019-04-26T12:48:16.722Z,33.04
2019-04-26T12:53:22.427Z,35.37
2019-04-26T12:58:28.068Z,35.32
2019-04-26T13:03:33.607Z,33.45
2019-04-26T13:08:39.048Z,34.71
2019-04-26T13:14:01.223Z,33.25
2019-04-26T13:19:06.986Z,33.79
2019-04-26T13:24:12.584Z,33.58
2019-04-26T13:29:18.042Z,35.37
2019-04-26T13:34:23.528Z,36.26
2019-04-26T13:39:28.986Z,37.14
2019-04-26T13:44:52.267Z,37.74
2019-04-26T13:50:05.317Z,38.52
2019-04-26T13:55:10.996Z,37.64
2019-04-26T14:00:18.462Z,37.06
2019-04-26T14:05:23.977Z,40.11
2019-04-26T14:10:29.547Z,37.21
2019-04-26T14:15:35.023Z,39.09
2019-04-26T14:20:40.470Z,35.74
2019-04-26T14:26:05.147Z,36.99
2019-04-26T14:31:12.147Z,38.81
2019-04-26T14:36:22.361Z,39.81
2019-04-26T14:41:25.837Z,40.31
2019-04-26T14:46:31.382Z,41.72
2019-04-26T14:51:36.908Z,40.65
2019-04-26T14:56:52.139Z,40.65
2019-04-26T15:01:52.289Z,39.78
2019-04-26T15:06:59.717Z,40.63
2019-04-26T15:12:07.755Z,41.85
2019-04-26T15:17:16.298Z,41.99
2019-04-26T15:22:20.190Z,42.11
2019-04-26T15:27:25.787Z,42.50
2019-04-26T15:32:32.873Z,42.73
2019-04-26T15:37:38.758Z,41.63
2019-04-26T15:43:01.164Z,40.75
2019-04-26T15:48:20.071Z,40.75
2019-04-26T15:53:23.994Z,42.03
2019-04-26T15:58:29.597Z,46.94
2019-04-26T16:03:36.854Z,42.79
2019-04-26T16:08:43.863Z,41.28
2019-04-26T16:13:52.123Z,42.70
2019-04-26T16:18:57.263Z,41.23
2019-04-26T16:24:03.009Z,41.93
2019-04-26T16:29:14.145Z,42.60
2019-04-26T16:34:19.988Z,46.46
2019-04-26T16:39:32.374Z,46.53
2019-04-26T16:44:33.533Z,48.90
2019-04-26T16:54:47.447Z,50.97
2019-04-26T16:59:59.711Z,52.05
2019-04-26T17:05:16.497Z,51.90
2019-04-26T17:09:37.395Z,50.43
2019-04-26T17:10:08.996Z,52.96
2019-04-26T17:15:17.583Z,54.99
2019-04-26T17:20:21.912Z,55.67
2019-04-26T17:25:37.984Z,57.10
2019-04-26T17:30:44.634Z,57.68
2019-04-26T17:35:50.517Z,58.43
2019-04-26T17:40:56.037Z,59.52
2019-04-26T17:46:01.559Z,60.62
2019-04-26T17:51:12.154Z,61.45
2019-04-26T17:56:14.319Z,62.04
2019-04-26T18:01:39.858Z,63.08
2019-04-26T18:06:29.779Z,64.11
2019-04-26T18:11:34.352Z,64.13
2019-04-26T18:16:42.722Z,65.20
2019-04-26T18:21:56.024Z,65.49
2019-04-26T18:27:00.601Z,65.54
2019-04-26T18:32:06.441Z,65.97
2019-04-26T18:37:13.347Z,67.15
2019-04-26T18:42:19.346Z,67.35
2019-04-26T18:47:28.293Z,67.80
2019-04-26T18:52:37.321Z,68.14
2019-04-26T18:57:43.069Z,68.57
2019-04-26T19:02:53.077Z,68.97
2019-04-26T19:07:56.206Z,69.14
2019-04-26T19:13:04.677Z,70.11
2019-04-26T19:18:18.211Z,69.30
2019-04-26T19:23:29.120Z,69.88
2019-04-26T19:28:31.095Z,70.38
2019-04-26T19:33:36.808Z,71.11
2019-04-26T19:38:43.716Z,71.40
2019-04-26T19:43:49.826Z,72.11
2019-04-26T19:49:15.218Z,72.25
2019-04-26T19:54:41.821Z,72.63
2019-04-26T19:59:47.452Z,72.68
2019-04-26T20:04:52.958Z,73.01
2019-04-26T20:10:02.620Z,73.01
2019-04-26T20:15:07.695Z,73.56
2019-04-26T20:20:20.969Z,73.52
2019-04-26T20:25:22.328Z,72.83
2019-04-26T20:30:32.519Z,73.44
2019-04-26T20:35:38.012Z,73.79
2019-04-26T20:40:47.371Z,73.83
2019-04-26T20:46:11.037Z,74.00
2019-04-26T20:50:58.118Z,74.28
2019-04-26T20:56:09.366Z,74.44
2019-04-26T21:01:14.041Z,74.00
2019-04-26T21:06:18.397Z,74.10
2019-04-26T21:11:24.395Z,74.08
2019-04-26T21:16:29.932Z,74.13
2019-04-26T21:21:35.492Z,74.37
2019-04-26T21:26:54.498Z,74.30
2019-04-26T21:32:00.140Z,74.76
2019-04-26T21:37:11.357Z,74.29
2019-04-26T21:42:20.910Z,74.61
2019-04-26T21:47:27.704Z,74.47
2019-04-26T21:52:31.932Z,73.93
2019-04-26T21:57:37.414Z,74.21
2019-04-26T22:02:43.233Z,74.70
2019-04-26T22:07:48.713Z,74.33
2019-04-26T22:12:54.171Z,74.59
2019-04-26T22:18:03.129Z,74.58
2019-04-26T22:23:21.449Z,74.72
2019-04-26T22:28:26.970Z,75.03
2019-04-26T22:33:34.087Z,74.91
2019-04-26T22:38:39.753Z,75.21
2019-04-26T22:43:49.575Z,75.06
2019-04-26T22:49:01.267Z,75.32
2019-04-26T22:54:06.165Z,75.31
2019-04-26T22:59:10.133Z,75.28
2019-04-26T23:04:22.583Z,75.28
2019-04-26T23:09:23.518Z,75.40
2019-04-26T23:14:48.268Z,75.94
2019-04-26T23:19:57.402Z,76.40
2019-04-26T23:25:03.516Z,76.50
2019-04-26T23:30:13.041Z,76.97
2019-04-26T23:35:18.707Z,77.34
2019-04-26T23:40:25.644Z,77.42
2019-04-26T23:45:33.296Z,77.09
2019-04-26T23:50:38.951Z,77.16
2019-04-26T23:55:45.321Z,77.16
